Time;durP1;ratioP1;P1;durP2;ratioP2;P2;SDS_P1;SDS_P2;PMS_P1;PMS_P2;Temp;Humidity;BMP_temperature;BMP_pressure;BME280_temperature;BME280_humidity;BME280_pressure;Samples;Min_cycle;Max_cycle;Signal;HPM_P1;HPM_P2
2022/10/31 00:02:20;;;;;;;12.13;5.80;;;13.00;99.90;;;;;;5021912;28;20242;-85
2022/10/31 00:04:45;;;;;;;11.40;5.30;;;13.00;99.90;;;;;;5023982;28;20212;-86
2022/10/31 00:07:11;;;;;;;10.27;5.50;;;13.00;99.90;;;;;;5040275;28;20178;-86
2022/10/31 00:09:36;;;;;;;12.33;6.47;;;12.90;99.90;;;;;;5038743;28;20642;-85
2022/10/31 00:12:03;;;;;;;13.13;6.07;;;12.90;99.90;;;;;;5023208;28;20252;-87
2022/10/31 00:14:28;;;;;;;8.70;5.00;;;12.90;99.90;;;;;;5039223;28;20174;-88
2022/10/31 00:16:54;;;;;;;10.87;5.67;;;12.80;99.90;;;;;;5039920;28;20458;-86
2022/10/31 00:19:19;;;;;;;9.73;5.23;;;12.80;99.90;;;;;;5038413;28;20182;-85
2022/10/31 00:21:45;;;;;;;6.90;5.30;;;12.80;99.90;;;;;;5006154;28;20210;-85
2022/10/31 00:24:11;;;;;;;13.87;6.37;;;12.80;99.90;;;;;;5037581;28;20190;-87
2022/10/31 00:26:36;;;;;;;15.90;6.70;;;12.80;99.90;;;;;;5038253;28;20189;-87
2022/10/31 00:29:03;;;;;;;12.40;5.73;;;12.70;99.90;;;;;;5032807;28;20421;-88
2022/10/31 00:31:29;;;;;;;10.53;5.90;;;12.70;99.90;;;;;;5034687;28;20230;-89
2022/10/31 00:33:54;;;;;;;6.63;5.13;;;12.70;99.90;;;;;;5035854;28;20433;-88
2022/10/31 00:36:20;;;;;;;12.90;6.00;;;12.70;99.90;;;;;;5034176;28;20547;-89
2022/10/31 00:38:47;;;;;;;8.30;5.73;;;12.70;99.90;;;;;;5034896;28;20189;-87
2022/10/31 00:41:15;;;;;;;16.33;6.57;;;12.60;99.90;;;;;;5001522;28;20456;-87
2022/10/31 00:43:42;;;;;;;10.67;5.03;;;12.70;99.90;;;;;;5035785;28;20452;-87
2022/10/31 00:46:07;;;;;;;8.33;5.03;;;12.60;99.90;;;;;;5035468;28;20498;-87
2022/10/31 00:48:33;;;;;;;11.63;6.90;;;12.70;99.90;;;;;;5035810;28;20413;-87
2022/10/31 00:50:59;;;;;;;9.97;5.90;;;12.80;99.90;;;;;;5036514;28;20196;-87
2022/10/31 00:53:25;;;;;;;10.03;5.57;;;12.80;99.90;;;;;;5041322;28;20186;-86
2022/10/31 00:55:50;;;;;;;14.73;6.10;;;12.70;99.90;;;;;;5039995;28;20440;-87
2022/10/31 00:58:16;;;;;;;9.27;5.30;;;12.80;99.90;;;;;;5036333;28;20432;-87
2022/10/31 01:00:41;;;;;;;6.87;5.43;;;12.70;99.90;;;;;;5036515;28;20240;-86
2022/10/31 01:03:07;;;;;;;11.67;6.00;;;12.70;99.90;;;;;;5034131;28;20651;-87
2022/10/31 01:05:33;;;;;;;19.97;6.33;;;12.80;99.90;;;;;;5018309;28;20205;-87
2022/10/31 01:07:59;;;;;;;12.37;5.93;;;12.80;99.90;;;;;;5018342;28;20405;-87
2022/10/31 01:10:24;;;;;;;8.23;5.60;;;12.90;99.90;;;;;;5035459;28;20178;-87
2022/10/31 01:12:50;;;;;;;9.43;5.83;;;12.90;99.90;;;;;;5017502;28;20284;-88
2022/10/31 01:15:19;;;;;;;15.10;5.83;;;12.90;99.90;;;;;;5035325;28;20550;-87
2022/10/31 01:17:45;;;;;;;9.53;5.97;;;12.90;99.90;;;;;;5035939;28;20427;-87
2022/10/31 01:20:12;;;;;;;12.50;6.47;;;12.90;99.90;;;;;;5033829;28;20582;-87
2022/10/31 01:22:38;;;;;;;12.47;6.03;;;12.90;99.90;;;;;;5033653;28;20186;-87
2022/10/31 01:25:04;;;;;;;10.60;5.30;;;12.90;99.90;;;;;;5033503;28;20470;-86
2022/10/31 01:27:31;;;;;;;12.00;6.10;;;12.90;99.90;;;;;;5033998;28;20274;-87
2022/10/31 01:29:57;;;;;;;9.07;6.30;;;12.90;99.90;;;;;;5017199;28;20436;-87
2022/10/31 01:32:23;;;;;;;12.80;6.40;;;12.90;99.90;;;;;;5017028;28;20421;-87
2022/10/31 01:34:49;;;;;;;8.90;5.10;;;12.90;99.90;;;;;;5034492;28;20185;-87
2022/10/31 01:37:14;;;;;;;11.50;6.03;;;12.80;99.90;;;;;;5018555;28;20656;-86
2022/10/31 01:39:40;;;;;;;9.77;5.90;;;12.80;99.90;;;;;;5037279;28;20413;-85
2022/10/31 01:42:05;;;;;;;10.97;5.70;;;12.90;99.90;;;;;;5035373;28;20194;-87
2022/10/31 01:44:31;;;;;;;7.97;5.53;;;12.80;99.90;;;;;;5037145;28;20690;-87
2022/10/31 01:47:00;;;;;;;13.17;6.73;;;12.80;99.90;;;;;;5034571;28;20237;-87
2022/10/31 01:49:41;;;;;;;7.33;5.20;;;12.80;99.90;;;;;;5035009;28;20642;-87
2022/10/31 01:52:37;;;;;;;8.97;5.60;;;12.80;99.90;;;;;;5034588;28;20390;-86
2022/10/31 01:55:13;;;;;;;10.47;6.03;;;12.70;99.90;;;;;;5032454;28;20549;-87
2022/10/31 01:57:42;;;;;;;11.93;6.27;;;12.70;99.90;;;;;;5034737;28;20404;-87
2022/10/31 02:00:09;;;;;;;9.80;6.70;;;12.70;99.90;;;;;;5032838;28;20453;-87
2022/10/31 02:02:35;;;;;;;11.73;6.70;;;12.70;99.90;;;;;;5033196;28;20432;-87
2022/10/31 02:05:07;;;;;;;11.23;6.33;;;12.60;99.90;;;;;;5033276;28;20411;-87
2022/10/31 02:08:13;;;;;;;6.10;5.10;;;12.60;99.90;;;;;;5034671;28;20413;-87
2022/10/31 02:10:42;;;;;;;9.53;6.07;;;12.60;99.90;;;;;;5034461;28;20498;-87
2022/10/31 02:13:08;;;;;;;13.50;5.60;;;12.50;99.90;;;;;;5034325;28;20751;-86
2022/10/31 02:15:36;;;;;;;7.23;5.30;;;12.50;99.90;;;;;;5032580;28;20964;-87
2022/10/31 02:18:03;;;;;;;8.23;5.97;;;12.40;99.90;;;;;;5032584;28;20745;-87
2022/10/31 02:20:58;;;;;;;9.07;6.13;;;12.40;99.90;;;;;;5032438;28;20577;-86
2022/10/31 02:24:09;;;;;;;7.97;5.70;;;12.40;99.90;;;;;;5033814;28;20460;-87
2022/10/31 02:27:05;;;;;;;9.50;5.70;;;12.40;99.90;;;;;;5009781;28;20976;-87
2022/10/31 02:29:37;;;;;;;16.67;6.17;;;12.30;99.90;;;;;;5034450;28;20759;-87
2022/10/31 02:32:25;;;;;;;9.03;5.50;;;12.20;99.90;;;;;;5034173;28;20421;-87
2022/10/31 02:35:03;;;;;;;11.80;6.47;;;12.20;99.90;;;;;;5013063;28;20433;-87
2022/10/31 02:37:56;;;;;;;11.10;6.10;;;12.20;99.90;;;;;;5032756;28;20429;-87
2022/10/31 02:40:28;;;;;;;7.57;5.70;;;12.10;99.90;;;;;;5033619;28;20460;-87
2022/10/31 02:43:24;;;;;;;11.83;5.30;;;12.10;99.90;;;;;;5033734;28;20421;-87
2022/10/31 02:46:20;;;;;;;10.43;5.73;;;12.10;99.90;;;;;;5033176;28;20476;-87
2022/10/31 02:48:48;;;;;;;15.87;5.67;;;12.10;99.90;;;;;;5032605;28;20492;-87
2022/10/31 02:51:15;;;;;;;10.10;5.63;;;12.10;99.90;;;;;;5033717;28;20401;-86
2022/10/31 02:53:40;;;;;;;7.10;5.83;;;12.00;99.90;;;;;;5033321;28;21144;-87
2022/10/31 02:56:12;;;;;;;19.73;7.20;;;12.00;99.90;;;;;;5033178;28;20405;-87
2022/10/31 02:58:47;;;;;;;9.83;5.57;;;12.00;99.90;;;;;;5034137;28;20166;-87
2022/10/31 03:01:31;;;;;;;9.70;6.40;;;11.90;99.90;;;;;;5033507;28;20495;-86
2022/10/31 03:04:19;;;;;;;10.93;6.73;;;11.90;99.90;;;;;;5034339;28;20483;-86
2022/10/31 03:07:03;;;;;;;12.77;6.40;;;11.90;99.90;;;;;;5031714;28;20479;-86
2022/10/31 03:09:28;;;;;;;12.57;5.90;;;11.90;99.90;;;;;;5033506;28;20409;-86
2022/10/31 03:12:06;;;;;;;9.63;6.00;;;11.80;99.90;;;;;;5033909;28;20413;-86
2022/10/31 03:14:48;;;;;;;9.63;6.00;;;11.80;99.90;;;;;;5033283;28;20171;-86
2022/10/31 03:17:45;;;;;;;11.87;5.70;;;11.80;99.90;;;;;;5032368;28;20510;-87
2022/10/31 03:20:11;;;;;;;10.87;6.10;;;11.80;99.90;;;;;;5027341;28;20534;-86
2022/10/31 03:22:40;;;;;;;11.33;5.70;;;11.80;99.90;;;;;;4999616;28;20429;-87
2022/10/31 03:25:07;;;;;;;12.97;5.93;;;11.80;99.90;;;;;;5032419;28;20194;-86
2022/10/31 03:27:35;;;;;;;9.07;6.50;;;11.70;99.90;;;;;;5034609;28;20840;-86
2022/10/31 03:30:04;;;;;;;8.53;5.50;;;11.80;99.90;;;;;;5037267;28;20404;-86
2022/10/31 03:33:04;;;;;;;12.07;6.37;;;11.80;99.90;;;;;;5036612;28;20975;-86
2022/10/31 03:35:32;;;;;;;8.43;5.40;;;11.90;99.90;;;;;;5014008;28;20432;-86
2022/10/31 03:37:59;;;;;;;10.40;6.57;;;11.90;99.90;;;;;;5036353;28;20813;-86
2022/10/31 03:40:27;;;;;;;9.57;5.80;;;12.00;99.90;;;;;;5034984;28;20967;-87
2022/10/31 03:43:00;;;;;;;10.83;7.10;;;12.00;99.90;;;;;;5036660;28;20757;-86
2022/10/31 03:45:30;;;;;;;9.70;6.27;;;12.00;99.90;;;;;;5035136;28;20429;-86
2022/10/31 03:47:58;;;;;;;14.87;6.70;;;12.00;99.90;;;;;;5036884;28;20394;-86
2022/10/31 03:50:28;;;;;;;11.33;5.90;;;12.00;99.90;;;;;;5036901;28;20425;-87
2022/10/31 03:53:09;;;;;;;11.63;6.60;;;12.00;99.90;;;;;;5036508;28;20753;-87
2022/10/31 03:56:04;;;;;;;10.77;6.10;;;12.10;99.90;;;;;;5035918;28;20469;-86
2022/10/31 03:58:39;;;;;;;12.70;8.40;;;12.10;99.90;;;;;;5034876;28;20449;-86
2022/10/31 04:01:09;;;;;;;16.83;6.73;;;12.00;99.90;;;;;;5036658;28;20560;-86
2022/10/31 04:03:37;;;;;;;8.47;6.83;;;12.00;99.90;;;;;;5036273;28;20455;-87
2022/10/31 04:06:07;;;;;;;11.33;7.40;;;12.00;99.90;;;;;;5040054;28;20417;-86
2022/10/31 04:08:40;;;;;;;16.07;7.00;;;12.00;99.90;;;;;;5040885;28;20401;-86
2022/10/31 04:11:09;;;;;;;11.00;7.80;;;12.00;99.90;;;;;;5040074;28;20432;-86
2022/10/31 04:13:38;;;;;;;11.57;7.80;;;12.00;99.90;;;;;;5036804;28;20472;-86
2022/10/31 04:16:03;;;;;;;15.03;7.83;;;12.00;99.90;;;;;;5036456;28;20774;-86
2022/10/31 04:18:29;;;;;;;15.93;8.10;;;12.00;99.90;;;;;;5034752;28;20409;-87
2022/10/31 04:21:03;;;;;;;11.30;8.87;;;12.00;99.90;;;;;;5035242;28;20452;-87
2022/10/31 04:23:29;;;;;;;10.43;8.20;;;12.10;99.90;;;;;;5034585;28;20194;-88
2022/10/31 04:25:55;;;;;;;13.13;8.70;;;12.10;99.90;;;;;;5036191;28;20416;-87
2022/10/31 04:28:21;;;;;;;11.53;7.67;;;12.00;99.90;;;;;;5035716;28;20527;-87
2022/10/31 04:30:47;;;;;;;10.50;7.50;;;12.10;99.90;;;;;;5034280;28;20459;-86
2022/10/31 04:33:12;;;;;;;18.33;7.40;;;12.10;99.90;;;;;;5035895;28;20174;-87
2022/10/31 04:35:38;;;;;;;15.63;8.00;;;12.20;99.90;;;;;;5034935;28;20186;-87
2022/10/31 04:38:03;;;;;;;11.37;7.57;;;12.20;99.90;;;;;;5033887;28;20233;-87
2022/10/31 04:40:29;;;;;;;11.13;7.30;;;12.20;99.90;;;;;;5034122;28;20564;-86
2022/10/31 04:42:55;;;;;;;11.17;7.07;;;12.20;99.90;;;;;;5017820;28;20212;-86
2022/10/31 04:45:20;;;;;;;9.97;6.80;;;12.10;99.90;;;;;;5034257;28;20205;-86
2022/10/31 04:47:46;;;;;;;13.47;8.20;;;12.20;99.90;;;;;;5034205;28;20641;-86
2022/10/31 04:50:11;;;;;;;15.60;8.20;;;12.20;99.90;;;;;;5034134;28;20186;-86
2022/10/31 04:52:42;;;;;;;13.27;7.50;;;12.30;99.90;;;;;;5033765;28;20178;-86
2022/10/31 04:55:08;;;;;;;17.87;8.70;;;12.30;99.90;;;;;;5035202;28;20308;-86
2022/10/31 04:57:48;;;;;;;13.93;9.00;;;12.30;99.90;;;;;;5033343;28;20479;-86
2022/10/31 05:00:16;;;;;;;13.90;8.73;;;12.30;99.90;;;;;;5033803;28;20551;-85
2022/10/31 05:02:49;;;;;;;15.23;7.77;;;12.20;99.90;;;;;;5035668;28;20413;-85
2022/10/31 05:05:19;;;;;;;17.27;8.33;;;12.20;99.90;;;;;;5033386;28;20506;-85
2022/10/31 05:07:47;;;;;;;11.03;7.10;;;12.20;99.90;;;;;;5035144;28;20417;-87
2022/10/31 05:10:16;;;;;;;11.93;7.40;;;12.20;99.90;;;;;;5033773;28;20432;-87
2022/10/31 05:12:59;;;;;;;11.63;6.90;;;12.10;99.90;;;;;;5033688;28;20428;-87
2022/10/31 05:15:26;;;;;;;11.50;7.20;;;12.00;99.90;;;;;;5034766;28;20405;-87
2022/10/31 05:17:52;;;;;;;13.63;7.90;;;12.00;99.90;;;;;;5033679;28;20420;-87
2022/10/31 05:20:20;;;;;;;14.67;7.57;;;12.00;99.90;;;;;;5034172;28;20476;-86
2022/10/31 05:22:48;;;;;;;13.53;8.80;;;12.00;99.90;;;;;;5033785;28;20413;-87
2022/10/31 05:25:15;;;;;;;12.33;7.33;;;12.00;99.90;;;;;;5033545;28;20425;-87
2022/10/31 05:27:43;;;;;;;13.13;7.60;;;12.00;99.90;;;;;;5034349;28;20413;-87
2022/10/31 05:30:11;;;;;;;12.73;7.00;;;12.00;99.90;;;;;;5035613;28;20416;-87
2022/10/31 05:32:41;;;;;;;16.70;7.90;;;11.90;99.90;;;;;;5033428;28;20951;-87
2022/10/31 05:35:08;;;;;;;13.17;8.50;;;11.90;99.90;;;;;;5034523;28;20500;-88
2022/10/31 05:37:37;;;;;;;13.10;7.20;;;11.80;99.90;;;;;;5034412;28;20417;-88
2022/10/31 05:40:04;;;;;;;11.90;7.90;;;11.80;99.90;;;;;;5033127;28;20995;-86
2022/10/31 05:42:30;;;;;;;12.83;7.67;;;11.80;99.90;;;;;;5033144;28;20898;-87
2022/10/31 05:44:56;;;;;;;11.70;7.90;;;11.80;99.90;;;;;;5033020;28;20520;-85
2022/10/31 05:47:21;;;;;;;13.73;8.17;;;11.70;99.90;;;;;;5013940;28;20645;-87
2022/10/31 05:49:47;;;;;;;14.30;7.97;;;11.70;99.90;;;;;;5033723;28;20186;-86
2022/10/31 05:52:12;;;;;;;15.93;8.27;;;11.60;99.90;;;;;;5032808;28;20182;-87
2022/10/31 05:54:38;;;;;;;12.30;7.20;;;11.60;99.90;;;;;;5032137;28;20280;-86
2022/10/31 05:57:03;;;;;;;12.77;6.83;;;11.60;99.90;;;;;;5016694;28;20178;-87
2022/10/31 05:59:29;;;;;;;11.80;6.83;;;11.60;99.90;;;;;;5032688;28;20178;-86
2022/10/31 06:01:54;;;;;;;10.50;7.60;;;11.60;99.90;;;;;;5033432;28;20689;-86
2022/10/31 06:04:20;;;;;;;11.63;7.13;;;11.50;99.90;;;;;;5017210;28;20178;-85
2022/10/31 06:06:45;;;;;;;9.73;6.07;;;11.60;99.90;;;;;;5032841;28;20634;-86
2022/10/31 06:09:12;;;;;;;12.87;6.90;;;11.50;99.90;;;;;;5016329;28;20190;-86
2022/10/31 06:11:37;;;;;;;11.23;6.90;;;11.50;99.90;;;;;;5032425;28;20182;-88
2022/10/31 06:14:04;;;;;;;19.47;7.13;;;11.50;99.90;;;;;;5032791;28;20428;-86
2022/10/31 06:16:29;;;;;;;14.47;7.00;;;11.40;99.90;;;;;;5032673;28;20197;-87
2022/10/31 06:18:55;;;;;;;14.90;8.07;;;11.40;99.90;;;;;;5016999;28;20425;-86
2022/10/31 06:21:21;;;;;;;20.67;7.03;;;11.40;99.90;;;;;;5032776;28;20272;-85
2022/10/31 06:23:46;;;;;;;18.57;8.67;;;11.40;99.90;;;;;;5034994;28;20272;-87
2022/10/31 06:26:12;;;;;;;12.43;7.77;;;11.40;99.90;;;;;;5017141;28;20209;-87
2022/10/31 06:28:37;;;;;;;14.20;7.23;;;11.30;99.90;;;;;;5035035;28;20197;-87
2022/10/31 06:31:03;;;;;;;11.13;7.37;;;11.30;99.90;;;;;;5033843;28;20182;-86
2022/10/31 06:33:29;;;;;;;15.33;8.73;;;11.20;99.90;;;;;;5033163;28;20281;-87
2022/10/31 06:35:54;;;;;;;17.10;7.50;;;11.20;99.90;;;;;;5014785;28;20182;-87
2022/10/31 06:38:20;;;;;;;11.50;7.13;;;11.10;99.90;;;;;;5032214;28;20190;-79
2022/10/31 06:40:46;;;;;;;17.27;10.20;;;11.20;99.90;;;;;;5033780;28;20561;-79
2022/10/31 06:43:11;;;;;;;18.43;8.80;;;11.20;99.90;;;;;;5032538;28;20252;-79
2022/10/31 06:45:37;;;;;;;14.20;8.80;;;11.20;99.90;;;;;;5031972;28;20178;-78
2022/10/31 06:48:03;;;;;;;15.03;8.40;;;11.30;99.90;;;;;;5032844;28;20182;-79
2022/10/31 06:50:29;;;;;;;15.67;8.87;;;11.30;99.90;;;;;;5033153;28;20235;-79
2022/10/31 06:52:56;;;;;;;15.20;8.00;;;11.30;99.90;;;;;;5033858;28;20417;-79
2022/10/31 06:55:24;;;;;;;13.50;9.10;;;11.40;99.90;;;;;;5032034;28;20241;-83
2022/10/31 06:57:57;;;;;;;19.70;8.90;;;11.40;99.90;;;;;;5031918;28;20436;-82
2022/10/31 07:00:24;;;;;;;16.50;9.33;;;11.40;99.90;;;;;;5032832;28;20463;-86
2022/10/31 07:03:00;;;;;;;18.23;8.50;;;11.40;99.90;;;;;;5036240;28;20893;-85
2022/10/31 07:05:27;;;;;;;13.67;8.50;;;11.40;99.90;;;;;;5036971;28;20534;-83
2022/10/31 07:08:00;;;;;;;11.70;8.10;;;11.40;99.90;;;;;;5036314;28;20416;-83
2022/10/31 07:10:28;;;;;;;15.63;9.00;;;11.40;99.90;;;;;;5036992;28;20420;-83
2022/10/31 07:12:55;;;;;;;15.20;9.10;;;11.40;99.90;;;;;;5035724;28;20519;-83
2022/10/31 07:15:22;;;;;;;14.37;8.07;;;11.40;99.90;;;;;;5037082;28;20445;-85
2022/10/31 07:17:47;;;;;;;10.63;7.90;;;11.30;99.90;;;;;;5035891;28;20445;-84
2022/10/31 07:20:13;;;;;;;15.53;7.50;;;11.30;99.90;;;;;;5036883;28;20984;-83
2022/10/31 07:22:39;;;;;;;9.93;6.50;;;11.30;99.90;;;;;;5018846;28;20550;-83
2022/10/31 07:25:04;;;;;;;15.00;8.13;;;11.30;99.90;;;;;;5035557;28;20186;-83
2022/10/31 07:27:36;;;;;;;17.40;6.63;;;11.40;99.90;;;;;;5035619;28;20182;-83
2022/10/31 07:30:03;;;;;;;11.87;8.20;;;11.40;99.90;;;;;;5037778;28;20490;-84
2022/10/31 07:32:40;;;;;;;22.03;10.40;;;11.40;99.90;;;;;;5035285;28;20428;-84
2022/10/31 07:35:07;;;;;;;12.23;8.90;;;11.50;99.90;;;;;;5035492;28;20968;-83
2022/10/31 07:37:33;;;;;;;12.90;10.50;;;11.60;99.90;;;;;;5035440;28;20417;-83
2022/10/31 07:39:59;;;;;;;18.33;11.80;;;11.60;99.90;;;;;;5035606;28;20478;-83
2022/10/31 07:42:25;;;;;;;13.37;10.10;;;11.70;99.90;;;;;;5035186;28;20516;-85
2022/10/31 07:44:50;;;;;;;22.20;10.87;;;11.70;99.90;;;;;;5035873;28;20533;-84
2022/10/31 07:47:16;;;;;;;13.13;8.73;;;11.80;99.90;;;;;;5036856;28;20178;-82
2022/10/31 07:49:41;;;;;;;16.67;10.27;;;11.90;99.90;;;;;;5019108;28;20182;-83
2022/10/31 07:52:07;;;;;;;14.90;9.40;;;12.00;99.90;;;;;;5019038;28;20232;-83
2022/10/31 07:54:32;;;;;;;14.80;9.60;;;12.10;99.90;;;;;;5035902;28;20701;-79
2022/10/31 07:56:58;;;;;;;16.03;10.00;;;12.10;99.90;;;;;;5035826;28;20719;-79
2022/10/31 07:59:25;;;;;;;20.63;10.47;;;12.30;99.90;;;;;;5036716;28;20248;-79
2022/10/31 08:01:51;;;;;;;14.70;9.93;;;12.30;99.90;;;;;;5036810;28;20693;-83
2022/10/31 08:04:16;;;;;;;14.70;10.17;;;12.30;99.90;;;;;;5036023;28;20555;-85
2022/10/31 08:06:42;;;;;;;19.37;10.80;;;12.40;99.90;;;;;;5036840;28;20182;-82
2022/10/31 08:09:08;;;;;;;14.40;9.80;;;12.40;99.90;;;;;;5019643;28;20178;-84
2022/10/31 08:11:33;;;;;;;15.07;9.23;;;12.50;99.90;;;;;;5038064;28;20597;-82
2022/10/31 08:13:59;;;;;;;18.93;9.40;;;12.50;99.90;;;;;;5033812;28;20266;-83
2022/10/31 08:16:24;;;;;;;13.87;8.80;;;12.50;99.90;;;;;;5036309;28;20244;-83
2022/10/31 08:18:50;;;;;;;21.03;9.87;;;12.50;99.90;;;;;;5018565;28;20189;-82
2022/10/31 08:21:15;;;;;;;19.67;10.37;;;12.50;99.90;;;;;;5035145;28;20555;-82
2022/10/31 08:23:41;;;;;;;21.10;10.67;;;12.60;99.90;;;;;;5018270;28;20179;-82
2022/10/31 08:26:07;;;;;;;23.43;11.30;;;12.60;99.90;;;;;;5018932;28;20179;-82
2022/10/31 08:28:32;;;;;;;26.60;11.47;;;12.70;99.90;;;;;;5035104;28;20209;-82
2022/10/31 08:30:58;;;;;;;17.77;10.53;;;12.80;99.90;;;;;;5036389;28;20266;-82
2022/10/31 08:33:24;;;;;;;19.20;10.07;;;12.90;99.90;;;;;;5035450;28;20529;-82
2022/10/31 08:35:50;;;;;;;22.90;9.30;;;13.00;99.90;;;;;;5035083;28;20429;-82
2022/10/31 08:38:16;;;;;;;16.40;9.40;;;13.10;99.90;;;;;;5018608;28;20459;-82
2022/10/31 08:40:42;;;;;;;18.67;10.80;;;13.20;99.90;;;;;;5034492;28;20461;-82
2022/10/31 08:43:13;;;;;;;19.33;10.27;;;13.20;99.90;;;;;;5018274;28;20701;-82
2022/10/31 08:45:39;;;;;;;18.47;10.33;;;13.40;99.90;;;;;;5035925;28;20316;-83
2022/10/31 08:48:08;;;;;;;18.53;10.20;;;13.50;99.90;;;;;;5035998;28;20486;-83
2022/10/31 08:50:35;;;;;;;28.30;13.53;;;13.60;99.90;;;;;;5032070;28;20897;-83
2022/10/31 08:53:11;;;;;;;21.80;11.20;;;13.60;99.90;;;;;;5040764;28;20409;-84
2022/10/31 08:55:39;;;;;;;18.30;11.60;;;13.80;99.90;;;;;;5035654;28;20458;-83
2022/10/31 08:58:07;;;;;;;18.47;11.83;;;13.90;99.90;;;;;;5035824;28;20420;-83
2022/10/31 09:00:34;;;;;;;24.07;12.83;;;14.00;99.90;;;;;;5035245;28;20821;-84
2022/10/31 09:03:01;;;;;;;23.37;13.60;;;14.20;99.90;;;;;;5035267;28;20509;-83
2022/10/31 09:05:27;;;;;;;22.63;12.63;;;14.30;99.90;;;;;;5018127;28;20457;-83
2022/10/31 09:07:58;;;;;;;21.83;12.63;;;14.40;99.90;;;;;;5035754;28;20422;-83
2022/10/31 09:10:25;;;;;;;28.73;12.30;;;14.60;99.90;;;;;;5035574;28;20467;-85
2022/10/31 09:13:03;;;;;;;17.60;10.20;;;14.80;99.90;;;;;;5034209;28;20512;-84
2022/10/31 09:15:30;;;;;;;17.83;9.97;;;14.90;99.90;;;;;;5035472;28;20827;-86
2022/10/31 09:17:56;;;;;;;14.50;10.20;;;15.10;99.90;;;;;;5034062;28;20496;-83
2022/10/31 09:20:22;;;;;;;30.13;10.23;;;15.20;99.90;;;;;;5017563;28;20564;-83
2022/10/31 09:22:48;;;;;;;17.40;10.07;;;15.20;99.90;;;;;;5035021;28;20376;-84
2022/10/31 09:25:13;;;;;;;16.87;9.30;;;15.40;99.90;;;;;;5017028;28;20792;-83
2022/10/31 09:27:39;;;;;;;16.57;8.30;;;15.50;99.90;;;;;;5034700;28;20204;-83
2022/10/31 09:30:05;;;;;;;16.80;7.80;;;15.60;99.90;;;;;;5035055;28;20679;-83
2022/10/31 09:32:31;;;;;;;9.93;8.53;;;15.80;99.90;;;;;;5034811;28;20178;-87
2022/10/31 09:34:56;;;;;;;16.80;9.97;;;16.00;99.90;;;;;;5033625;28;20789;-83
2022/10/31 09:37:22;;;;;;;17.93;10.40;;;16.10;99.90;;;;;;5033920;28;20178;-83
2022/10/31 09:39:47;;;;;;;20.23;11.77;;;16.20;99.90;;;;;;5033375;28;20182;-84
2022/10/31 09:42:24;;;;;;;23.83;12.77;;;16.30;99.90;;;;;;5033300;28;20222;-84
2022/10/31 09:45:14;;;;;;;22.43;11.70;;;16.60;99.90;;;;;;5032984;28;20166;-86
2022/10/31 09:48:05;;;;;;;23.53;12.47;;;16.80;99.90;;;;;;5033062;28;20871;-85
2022/10/31 09:50:47;;;;;;;21.50;12.43;;;17.20;99.90;;;;;;5033353;28;20402;-85
2022/10/31 09:53:33;;;;;;;18.17;11.63;;;17.40;99.90;;;;;;5034300;28;20376;-85
2022/10/31 09:56:00;;;;;;;21.13;10.83;;;17.60;99.90;;;;;;5034608;28;20427;-84
2022/10/31 09:58:30;;;;;;;18.27;10.00;;;18.10;99.90;;;;;;5032924;28;20421;-84
2022/10/31 10:01:00;;;;;;;13.40;10.17;;;18.40;99.90;;;;;;5032849;28;20435;-85
2022/10/31 10:03:31;;;;;;;13.70;9.37;;;18.70;99.90;;;;;;5032803;28;20459;-85
2022/10/31 10:06:19;;;;;;;16.93;9.53;;;18.90;99.90;;;;;;5032694;28;20413;-84
2022/10/31 10:08:45;;;;;;;14.57;9.20;;;19.30;99.90;;;;;;5013974;28;20444;-85
2022/10/31 10:11:28;;;;;;;16.80;10.40;;;19.40;99.90;;;;;;4996645;28;20457;-85
2022/10/31 10:13:58;;;;;;;17.37;9.00;;;19.40;99.90;;;;;;5014003;28;20210;-85
2022/10/31 10:16:41;;;;;;;12.43;8.60;;;19.10;99.90;;;;;;5012402;28;20426;-84
2022/10/31 10:19:34;;;;;;;13.53;10.00;;;18.90;99.90;;;;;;5012929;28;20418;-85
2022/10/31 10:22:20;;;;;;;12.77;10.00;;;18.70;99.90;;;;;;5032282;28;20485;-84
2022/10/31 10:25:10;;;;;;;17.83;8.17;;;18.70;99.90;;;;;;5033409;28;20491;-85
2022/10/31 10:27:51;;;;;;;12.30;7.70;;;18.50;99.90;;;;;;5032904;28;20751;-85
2022/10/31 10:30:22;;;;;;;15.90;8.60;;;18.40;99.90;;;;;;5032566;28;20444;-85
2022/10/31 10:32:54;;;;;;;15.53;8.90;;;18.30;99.90;;;;;;5032213;28;20441;-84
2022/10/31 10:35:31;;;;;;;10.67;7.80;;;18.50;99.90;;;;;;5032652;28;20421;-85
2022/10/31 10:38:18;;;;;;;11.37;7.43;;;18.70;99.90;;;;;;5031826;28;20423;-85
2022/10/31 10:40:44;;;;;;;17.40;8.57;;;18.70;99.90;;;;;;5022277;28;20828;-84
2022/10/31 10:43:23;;;;;;;17.93;8.47;;;18.70;99.90;;;;;;5032818;28;20474;-84
2022/10/31 10:49:17;;;;;;;16.80;8.10;;;19.10;99.90;;;;;;5033028;28;20389;-84
2022/10/31 10:51:53;;;;;;;13.83;8.47;;;19.50;99.90;;;;;;5032283;28;20428;-86
2022/10/31 10:54:46;;;;;;;13.03;8.27;;;19.80;99.90;;;;;;5031857;28;20461;-84
2022/10/31 10:57:18;;;;;;;15.17;7.60;;;20.00;99.90;;;;;;5032363;28;20498;-84
2022/10/31 10:59:45;;;;;;;15.70;8.80;;;20.30;99.90;;;;;;5031988;28;20749;-85
2022/10/31 11:02:22;;;;;;;13.40;7.73;;;20.40;99.90;;;;;;5032408;28;20550;-84
2022/10/31 11:04:52;;;;;;;15.57;9.03;;;20.60;99.90;;;;;;5034318;28;20407;-84
2022/10/31 11:07:18;;;;;;;13.70;8.00;;;20.50;99.90;;;;;;5032314;28;20409;-83
2022/10/31 11:09:44;;;;;;;17.20;8.33;;;20.50;99.90;;;;;;5033572;28;20414;-83
2022/10/31 11:12:24;;;;;;;15.97;7.90;;;20.60;99.90;;;;;;5015392;28;20189;-84
2022/10/31 11:14:54;;;;;;;19.70;8.27;;;21.00;99.90;;;;;;5034581;28;20372;-84
2022/10/31 11:17:36;;;;;;;13.47;6.00;;;21.30;99.90;;;;;;5034321;28;20401;-83
2022/10/31 11:20:04;;;;;;;13.33;6.33;;;21.60;99.90;;;;;;5033762;28;20397;-83
2022/10/31 11:22:29;;;;;;;14.03;6.30;;;21.80;99.90;;;;;;5033092;28;20499;-84
2022/10/31 11:24:55;;;;;;;7.43;4.50;;;21.90;99.90;;;;;;5031576;28;20527;-83
2022/10/31 11:27:23;;;;;;;14.83;5.83;;;21.70;99.90;;;;;;5033300;28;20417;-84
2022/10/31 11:29:52;;;;;;;14.50;5.60;;;21.60;99.90;;;;;;5032012;28;20539;-83
2022/10/31 11:32:23;;;;;;;12.70;5.30;;;21.30;99.90;;;;;;5032022;28;20774;-82
2022/10/31 11:35:00;;;;;;;7.43;5.50;;;21.20;99.90;;;;;;5033356;28;20405;-83
2022/10/31 11:37:29;;;;;;;6.63;4.60;;;21.20;99.90;;;;;;5033163;28;20397;-84
2022/10/31 11:39:58;;;;;;;12.80;5.83;;;21.30;99.90;;;;;;5032670;28;20388;-83
2022/10/31 11:42:34;;;;;;;8.87;4.33;;;21.30;99.90;;;;;;5033002;28;20970;-83
2022/10/31 11:45:36;;;;;;;7.27;5.37;;;21.30;99.90;;;;;;5031541;28;20386;-84
2022/10/31 11:48:13;;;;;;;11.30;5.90;;;21.40;99.90;;;;;;5014573;28;20417;-83
2022/10/31 11:50:41;;;;;;;7.60;6.00;;;21.30;99.90;;;;;;5036024;28;20901;-87
2022/10/31 11:53:21;;;;;;;10.77;5.40;;;21.40;99.90;;;;;;5034951;28;20475;-85
2022/10/31 11:55:59;;;;;;;11.97;6.03;;;21.40;99.90;;;;;;5035070;28;20467;-83
2022/10/31 11:58:26;;;;;;;9.17;6.20;;;21.30;99.90;;;;;;5035208;28;20423;-83
2022/10/31 12:00:54;;;;;;;13.77;5.90;;;21.30;99.90;;;;;;5035191;28;20815;-84
2022/10/31 12:03:23;;;;;;;11.97;5.77;;;21.30;99.90;;;;;;5036285;28;20424;-84
2022/10/31 12:06:06;;;;;;;12.50;6.80;;;21.20;99.90;;;;;;5034837;28;20506;-84
2022/10/31 12:08:36;;;;;;;11.17;6.87;;;21.10;99.90;;;;;;5034919;28;20430;-83
2022/10/31 12:11:16;;;;;;;12.50;6.23;;;21.10;99.90;;;;;;5035845;28;20409;-84
2022/10/31 12:14:09;;;;;;;12.50;7.27;;;21.10;99.90;;;;;;5036214;28;20421;-85
2022/10/31 12:17:15;;;;;;;20.20;6.57;;;21.00;99.90;;;;;;5034685;28;20425;-84
2022/10/31 12:20:18;;;;;;;15.87;6.30;;;20.80;99.90;;;;;;5035457;28;20888;-84
2022/10/31 12:23:06;;;;;;;14.03;6.17;;;20.60;99.90;;;;;;5022963;28;20458;-84
2022/10/31 12:26:06;;;;;;;12.20;6.63;;;20.60;99.90;;;;;;5035926;28;20448;-83
2022/10/31 12:29:06;;;;;;;15.30;6.47;;;20.50;99.90;;;;;;5034884;28;20479;-83
2022/10/31 12:31:40;;;;;;;9.47;7.10;;;20.60;99.90;;;;;;5035850;28;20428;-84
2022/10/31 12:34:38;;;;;;;11.33;6.90;;;20.70;99.90;;;;;;5035657;28;20470;-83
2022/10/31 12:37:34;;;;;;;10.77;6.73;;;20.60;99.90;;;;;;5001059;28;20399;-84
2022/10/31 12:40:47;;;;;;;13.03;5.70;;;20.50;99.90;;;;;;5030215;28;20421;-83
2022/10/31 12:43:36;;;;;;;15.40;6.67;;;20.30;99.90;;;;;;5017033;28;20453;-83
2022/10/31 12:46:05;;;;;;;13.67;6.27;;;20.10;99.90;;;;;;5033880;28;20399;-83
2022/10/31 12:49:01;;;;;;;15.37;5.93;;;20.00;99.90;;;;;;5034066;28;20947;-83
2022/10/31 12:51:46;;;;;;;12.97;6.33;;;20.10;99.90;;;;;;5033957;28;20431;-83
2022/10/31 12:54:19;;;;;;;11.57;6.97;;;20.10;99.90;;;;;;5034118;28;20814;-83
2022/10/31 12:57:08;;;;;;;14.20;5.77;;;20.10;99.90;;;;;;5034120;28;20495;-84
2022/10/31 12:59:44;;;;;;;12.33;5.47;;;20.10;99.90;;;;;;5032810;28;20777;-83
2022/10/31 13:02:10;;;;;;;14.13;5.43;;;20.10;99.90;;;;;;5033457;28;20464;-83
2022/10/31 13:04:43;;;;;;;13.80;5.20;;;20.10;99.90;;;;;;5034835;28;20397;-83